Airfield :
LOGIN :

Register | Disclaimer

   EN    FR    IT 

 










Legend :    VFR   Marginal VFR   IFR   Intensive IFR   Very Intensive IFR
Visi :
Ceiling :
>= 8 km
>= 3000ft
5 to 8 km
1000 to 3000 ft
1500m to 5 km
500 to 1000 ft
800 to 1500m
200 to 500 ft
< 800m
< 200 ft
Symbols :   Thunderstorms  Fog  Heavy snow  Heavy precipitations  Wind > 20 kt
SIGMETs :     Misc.  Thunderstorms  Icing  Turbulence  Mountain Waves  Volcanic Ashes







- Airport Elevation : 1043 ft
- IATA code : SLD


LZSL - Sliac

CURRENT METAR :
  • 260930Z 32014KT 290V010 9999 SCT048 08/M03 Q1021

EXPIRED METARs :
  • 260900Z 32014KT 290V010 9999 FEW046 SCT052 08/M04 Q1021
  • 260830Z 32013KT 9999 FEW043 SCT050 07/M03 Q1021
  • 260800Z 34010KT 320V020 9999 FEW042 SCT050 06/M03 Q1020
  • 260730Z 35005KT 310V020 9999 FEW040 SCT050 06/M03 Q1020
  • 260700Z VRB04KT 9999 FEW040 SCT048 06/M02 Q1020

TAF TAF LZSL
Valid from the 26 at 09:00 until the 26 at 18:00 UTC


260800Z 2609/2618 35005KT 9999 FEW040 SCT050
PROB40
TEMPO 2610/2615 35012G25KT
No reported NOTAMs for that airfield.



MET'MAP, your aeronautical weather chart ! - Copyright ORBIFLY December 2007 - Disclaimer

ORBIFLY MET'MAP TEAM :

Programming & Development : Alexandra Zaïnal
Concept & Development : Baudouin d'Aumeries
Co-Development & Prog : Marc-Olivier Méhu
Technical & hardware support : Manuel Goepfert

Contact : metmap@orbifly.com




SOURCES & CREDITS :

   NOAA